createdAt,value
2024-03-06T00:00:41.448Z,2.60
2024-03-06T00:03:34.809Z,2.60
2024-03-06T00:06:08.644Z,2.60
2024-03-06T00:08:41.875Z,2.62
2024-03-06T00:11:15.197Z,2.62
2024-03-06T00:13:49.154Z,2.62
2024-03-06T00:16:22.503Z,2.70
2024-03-06T00:18:55.671Z,2.70
2024-03-06T00:21:29.828Z,2.70
2024-03-06T00:24:03.329Z,2.70
2024-03-06T00:26:36.511Z,2.70
2024-03-06T00:29:10.863Z,2.66
2024-03-06T00:31:48.348Z,2.60
2024-03-06T00:34:21.587Z,2.50
2024-03-06T00:36:55.619Z,2.50
2024-03-06T00:39:28.874Z,2.40
2024-03-06T00:42:02.154Z,2.40
2024-03-06T00:44:35.354Z,2.40
2024-03-06T00:47:08.965Z,2.30
2024-03-06T00:49:43.420Z,2.30
2024-03-06T00:52:17.462Z,2.30
2024-03-06T00:54:50.640Z,2.30
2024-03-06T00:57:23.798Z,2.24
2024-03-06T00:59:57.593Z,2.20
2024-03-06T01:02:30.776Z,2.20
2024-03-06T01:05:05.511Z,2.20
2024-03-06T01:07:41.515Z,2.20
2024-03-06T01:10:15.086Z,2.20
2024-03-06T01:12:48.673Z,2.20
2024-03-06T01:15:22.101Z,2.10
2024-03-06T01:17:55.284Z,2.00
2024-03-06T01:20:28.670Z,1.90
2024-03-06T01:23:02.253Z,1.80
2024-03-06T01:25:35.639Z,1.70
2024-03-06T01:28:09.620Z,1.70
2024-03-06T01:30:43.032Z,1.60
2024-03-06T01:33:16.303Z,1.60
2024-03-06T01:35:49.495Z,1.58
2024-03-06T01:38:22.872Z,1.58
2024-03-06T01:40:56.208Z,1.60
2024-03-06T01:43:30.049Z,1.50
2024-03-06T01:46:07.191Z,1.44
2024-03-06T01:48:40.547Z,1.48
2024-03-06T01:51:14.154Z,1.50
2024-03-06T01:53:47.592Z,1.50
2024-03-06T01:56:21.711Z,1.50
2024-03-06T01:58:58.225Z,1.52
2024-03-06T02:01:32.040Z,1.60
2024-03-06T02:04:06.577Z,1.60
2024-03-06T02:06:42.033Z,1.62
2024-03-06T02:09:16.638Z,1.70
2024-03-06T02:11:51.324Z,1.70
2024-03-06T02:14:25.302Z,1.70
2024-03-06T02:16:58.616Z,1.78
2024-03-06T02:19:44.064Z,1.80
2024-03-06T02:22:17.658Z,1.82
2024-03-06T02:24:53.310Z,1.90
2024-03-06T02:27:26.497Z,1.96
2024-03-06T02:29:59.745Z,2.00
2024-03-06T02:32:33.090Z,2.10
2024-03-06T02:35:10.176Z,2.20
2024-03-06T02:37:45.904Z,2.20
2024-03-06T02:40:19.426Z,2.20
2024-03-06T02:42:52.727Z,2.20
2024-03-06T02:45:26.058Z,2.20
2024-03-06T02:47:59.379Z,2.16
2024-03-06T02:50:32.596Z,2.12
2024-03-06T02:53:06.095Z,2.10
2024-03-06T02:55:39.346Z,2.10
2024-03-06T02:58:12.599Z,2.10
2024-03-06T03:00:46.582Z,2.10
2024-03-06T03:03:21.119Z,2.10
2024-03-06T03:05:54.500Z,2.10
2024-03-06T03:08:27.798Z,2.00
2024-03-06T03:11:01.007Z,2.00
2024-03-06T03:13:34.320Z,1.90
2024-03-06T03:16:08.813Z,1.90
2024-03-06T03:18:41.933Z,1.90
2024-03-06T03:21:15.193Z,1.90
2024-03-06T03:23:48.431Z,1.90
2024-03-06T03:26:21.952Z,1.90
2024-03-06T03:28:56.924Z,1.84
2024-03-06T03:31:30.185Z,1.80
2024-03-06T03:34:03.420Z,1.82
2024-03-06T03:36:38.236Z,1.80
2024-03-06T03:39:16.986Z,1.80
2024-03-06T03:41:51.288Z,1.80
2024-03-06T03:44:24.815Z,1.80
2024-03-06T03:46:58.351Z,1.80
2024-03-06T03:49:31.652Z,1.76
2024-03-06T03:52:05.329Z,1.70
2024-03-06T03:54:38.470Z,1.70
2024-03-06T03:57:12.089Z,1.70
2024-03-06T03:59:45.353Z,1.66
2024-03-06T04:02:19.369Z,1.60
2024-03-06T04:04:52.865Z,1.50
2024-03-06T04:07:26.042Z,1.50
2024-03-06T04:09:59.917Z,1.50
2024-03-06T04:12:33.220Z,1.50
2024-03-06T04:15:07.552Z,1.50
2024-03-06T04:17:42.336Z,1.50
2024-03-06T04:20:17.181Z,1.50
2024-03-06T04:22:52.213Z,1.50
2024-03-06T04:25:26.162Z,1.50
2024-03-06T04:27:59.343Z,1.40
2024-03-06T04:30:32.498Z,1.40
2024-03-06T04:33:05.921Z,1.30
2024-03-06T04:35:39.130Z,1.30
2024-03-06T04:38:12.345Z,1.24
2024-03-06T04:40:46.377Z,1.24
2024-03-06T04:43:19.980Z,1.20
2024-03-06T04:45:53.190Z,1.20
2024-03-06T04:48:26.798Z,1.20
2024-03-06T04:51:00.101Z,1.10
2024-03-06T04:53:33.631Z,1.20
2024-03-06T04:56:08.697Z,1.10
2024-03-06T04:58:42.453Z,1.06
2024-03-06T05:01:16.974Z,1.00
2024-03-06T05:58:09.450Z,0.90
2024-03-06T06:00:43.382Z,0.90
2024-03-06T06:03:17.750Z,0.90
2024-03-06T06:05:52.318Z,0.90
2024-03-06T06:08:25.875Z,0.94
2024-03-06T06:10:59.218Z,0.98
2024-03-06T06:13:32.722Z,1.00
2024-03-06T06:16:06.848Z,1.00
2024-03-06T06:18:43.076Z,1.00
2024-03-06T06:21:17.436Z,1.00
2024-03-06T06:23:50.550Z,1.00
2024-03-06T06:26:24.271Z,1.00
2024-03-06T06:28:57.618Z,1.10
2024-03-06T06:31:30.957Z,1.14
2024-03-06T06:34:04.430Z,1.20
2024-03-06T06:36:38.865Z,1.16
2024-03-06T06:39:13.483Z,1.10
2024-03-06T06:41:46.777Z,1.10
2024-03-06T06:44:20.251Z,1.10
2024-03-06T06:46:53.575Z,1.10
2024-03-06T06:49:26.876Z,1.10
2024-03-06T06:52:00.610Z,1.10
2024-03-06T06:54:34.070Z,1.10
2024-03-06T06:57:07.294Z,1.20
2024-03-06T06:59:40.654Z,1.20
2024-03-06T07:02:14.048Z,1.24
2024-03-06T07:04:47.611Z,1.30
2024-03-06T07:07:20.894Z,1.30
2024-03-06T07:09:54.084Z,1.34
2024-03-06T07:12:28.060Z,1.32
2024-03-06T07:15:01.461Z,1.38
2024-03-06T07:17:34.842Z,1.30
2024-03-06T07:20:11.575Z,1.30
2024-03-06T07:22:44.797Z,1.30
2024-03-06T07:25:18.301Z,1.36
2024-03-06T07:27:51.557Z,1.40
2024-03-06T07:30:25.154Z,1.46
2024-03-06T07:32:58.905Z,1.50
2024-03-06T07:35:32.237Z,1.52
2024-03-06T07:38:06.239Z,1.60
2024-03-06T07:40:39.477Z,1.60
2024-03-06T07:43:13.093Z,1.60
2024-03-06T07:45:46.415Z,1.70
2024-03-06T07:48:19.732Z,1.70
2024-03-06T07:50:52.933Z,1.80
2024-03-06T07:53:26.754Z,1.82
2024-03-06T07:55:59.369Z,1.90
2024-03-06T07:58:32.282Z,1.90
2024-03-06T08:01:04.853Z,1.98
2024-03-06T08:03:37.524Z,2.00
2024-03-06T08:06:11.028Z,2.10
2024-03-06T08:08:46.466Z,2.10
2024-03-06T08:11:18.981Z,2.20
2024-03-06T08:13:52.519Z,2.20
2024-03-06T08:16:24.729Z,2.30
2024-03-06T08:18:57.544Z,2.40
2024-03-06T08:21:30.137Z,2.44
2024-03-06T08:24:02.386Z,2.50
2024-03-06T08:26:34.710Z,2.56
2024-03-06T08:29:07.870Z,2.60
2024-03-06T08:31:40.184Z,2.70
2024-03-06T08:34:12.717Z,2.72
2024-03-06T08:36:44.952Z,2.80
2024-03-06T08:39:17.607Z,2.82
2024-03-06T08:41:50.040Z,2.90
2024-03-06T08:44:22.540Z,2.90
2024-03-06T08:46:54.840Z,2.98
2024-03-06T08:49:27.072Z,3.00
2024-03-06T08:51:59.342Z,3.08
2024-03-06T08:54:32.236Z,3.10
2024-03-06T08:57:04.626Z,3.12
2024-03-06T08:59:37.030Z,3.20
2024-03-06T09:02:20.804Z,3.20
2024-03-06T09:04:53.921Z,3.20
2024-03-06T09:07:26.941Z,3.30
2024-03-06T09:09:59.258Z,3.30
2024-03-06T09:12:31.899Z,3.30
2024-03-06T09:15:05.394Z,3.30
2024-03-06T09:17:37.741Z,3.30
2024-03-06T09:20:14.076Z,3.30
2024-03-06T09:22:47.916Z,3.30
2024-03-06T09:25:20.524Z,3.40
2024-03-06T09:27:53.095Z,3.40
2024-03-06T09:30:25.470Z,3.40
2024-03-06T09:32:58.097Z,3.44
2024-03-06T09:35:30.810Z,3.50
2024-03-06T09:38:03.283Z,3.50
2024-03-06T09:40:35.521Z,3.50
2024-03-06T09:43:08.966Z,3.52
2024-03-06T09:45:41.367Z,3.60
2024-03-06T09:48:14.230Z,3.60
2024-03-06T09:50:49.134Z,3.60
2024-03-06T09:53:23.863Z,3.62
2024-03-06T09:55:58.614Z,3.68
2024-03-06T09:58:30.976Z,3.70
2024-03-06T10:01:08.320Z,3.70
2024-03-06T10:03:42.291Z,3.70
2024-03-06T10:06:15.164Z,3.70
2024-03-06T10:08:50.530Z,3.70
2024-03-06T10:11:23.299Z,3.70
2024-03-06T10:13:57.797Z,3.68
2024-03-06T10:16:29.974Z,3.70
2024-03-06T10:19:19.467Z,3.70
2024-03-06T10:21:53.860Z,3.70
2024-03-06T10:24:27.992Z,3.70
2024-03-06T10:27:02.009Z,3.70
2024-03-06T10:29:36.591Z,3.70
2024-03-06T10:32:10.282Z,3.70
2024-03-06T10:34:43.268Z,3.70
2024-03-06T10:37:16.318Z,3.68
2024-03-06T10:39:52.854Z,3.70
2024-03-06T10:42:29.676Z,3.70
2024-03-06T10:45:07.262Z,3.70
2024-03-06T10:47:42.153Z,3.70
2024-03-06T10:50:18.978Z,3.70
2024-03-06T10:52:56.389Z,3.70
2024-03-06T10:55:35.493Z,3.70
2024-03-06T10:58:10.704Z,3.70
2024-03-06T11:00:47.425Z,3.70
2024-03-06T11:03:20.136Z,3.70
2024-03-06T11:05:53.320Z,3.70
2024-03-06T11:08:26.711Z,3.70
2024-03-06T11:11:26.455Z,3.70
2024-03-06T11:14:05.888Z,3.70
2024-03-06T11:17:03.168Z,3.70
2024-03-06T11:19:56.630Z,3.70
2024-03-06T11:23:11.554Z,3.70
2024-03-06T11:26:07.102Z,3.70
2024-03-06T11:28:42.318Z,3.80
2024-03-06T11:31:19.954Z,3.80
2024-03-06T11:33:57.766Z,3.80
2024-03-06T11:36:31.423Z,3.80
2024-03-06T11:39:07.785Z,3.80
2024-03-06T11:41:54.428Z,3.80
2024-03-06T11:44:30.922Z,3.80
2024-03-06T11:47:05.901Z,3.90
2024-03-06T11:49:40.043Z,3.90
2024-03-06T11:52:13.192Z,3.90
2024-03-06T11:54:45.541Z,3.90
2024-03-06T11:57:21.768Z,3.90
2024-03-06T11:59:56.684Z,3.90
2024-03-06T12:02:29.440Z,3.80
2024-03-06T12:05:06.993Z,3.80
2024-03-06T12:07:51.638Z,3.80
2024-03-06T12:10:24.617Z,3.80
2024-03-06T12:12:56.805Z,3.78
2024-03-06T12:15:29.074Z,3.80
2024-03-06T12:18:01.988Z,3.80
2024-03-06T12:20:34.453Z,3.80
2024-03-06T12:23:06.930Z,3.80
2024-03-06T12:25:39.563Z,3.80
2024-03-06T12:28:13.505Z,3.80
2024-03-06T12:30:47.684Z,3.80
2024-03-06T12:33:22.924Z,3.74
2024-03-06T12:36:11.895Z,3.80
2024-03-06T12:38:44.673Z,3.80
2024-03-06T12:41:17.322Z,3.80
2024-03-06T12:43:49.834Z,3.80
2024-03-06T12:46:22.504Z,3.82
2024-03-06T12:48:55.486Z,3.90
2024-03-06T12:51:28.059Z,3.90
2024-03-06T12:54:00.420Z,3.90
2024-03-06T12:56:34.874Z,3.90
2024-03-06T12:59:07.144Z,3.88
2024-03-06T13:01:39.416Z,3.80
2024-03-06T13:04:13.337Z,3.80
2024-03-06T13:06:46.449Z,3.90
2024-03-06T13:09:19.067Z,3.90
2024-03-06T13:11:51.555Z,3.90
2024-03-06T13:14:23.853Z,3.90
2024-03-06T13:16:57.169Z,3.84
2024-03-06T13:19:30.278Z,3.80
2024-03-06T13:22:05.567Z,3.80
2024-03-06T13:24:42.177Z,3.80
2024-03-06T13:27:16.844Z,3.80
2024-03-06T13:29:49.177Z,3.80
2024-03-06T13:32:21.695Z,3.90
2024-03-06T13:34:54.204Z,3.90
2024-03-06T13:37:26.773Z,3.90
2024-03-06T13:40:02.085Z,3.90
2024-03-06T13:42:34.684Z,3.90
2024-03-06T13:45:12.804Z,3.90
2024-03-06T13:47:47.146Z,3.90
2024-03-06T13:50:23.190Z,4.00
2024-03-06T13:52:55.574Z,3.94
2024-03-06T13:55:29.969Z,3.92
2024-03-06T13:58:05.089Z,3.94
2024-03-06T14:00:38.022Z,4.00
2024-03-06T14:03:13.085Z,4.00
2024-03-06T14:05:46.857Z,4.00
2024-03-06T14:08:22.493Z,4.00
2024-03-06T14:10:55.383Z,4.06
2024-03-06T14:13:31.700Z,4.06
2024-03-06T14:16:04.992Z,4.10
2024-03-06T14:18:37.856Z,4.10
2024-03-06T14:21:11.697Z,4.10
2024-03-06T14:23:45.222Z,4.10
2024-03-06T14:26:18.512Z,4.10
2024-03-06T14:28:51.770Z,4.10
2024-03-06T14:31:29.640Z,4.10
2024-03-06T14:34:06.165Z,4.10
2024-03-06T14:36:39.516Z,4.10
2024-03-06T14:39:23.602Z,4.10
2024-03-06T14:41:59.439Z,4.16
2024-03-06T14:44:32.010Z,4.20
2024-03-06T14:47:04.474Z,4.20
2024-03-06T14:49:37.023Z,4.20
2024-03-06T14:52:10.229Z,4.20
2024-03-06T14:54:44.891Z,4.20
2024-03-06T14:57:17.877Z,4.20
2024-03-06T14:59:51.217Z,4.20
2024-03-06T15:02:23.618Z,4.20
2024-03-06T15:04:56.015Z,4.20
2024-03-06T15:07:28.395Z,4.30
2024-03-06T15:10:00.641Z,4.30
2024-03-06T15:12:32.943Z,4.30
2024-03-06T15:15:07.597Z,4.30
2024-03-06T15:17:40.957Z,4.30
2024-03-06T15:20:16.296Z,4.30
2024-03-06T15:22:48.913Z,4.38
2024-03-06T15:25:22.963Z,4.40
2024-03-06T15:27:55.142Z,4.40
2024-03-06T15:30:29.281Z,4.40
2024-03-06T15:33:01.750Z,4.40
2024-03-06T15:35:34.166Z,4.40
2024-03-06T15:38:06.850Z,4.40
2024-03-06T15:40:39.561Z,4.50
2024-03-06T15:43:11.839Z,4.50
2024-03-06T15:45:44.483Z,4.50
2024-03-06T15:48:16.984Z,4.50
2024-03-06T15:50:49.823Z,4.50
2024-03-06T15:53:29.411Z,4.50
2024-03-06T15:56:01.780Z,4.50
2024-03-06T15:58:34.240Z,4.50
2024-03-06T16:01:07.624Z,4.50
2024-03-06T16:03:39.811Z,4.50
2024-03-06T16:06:18.241Z,4.50
2024-03-06T16:08:51.974Z,4.52
2024-03-06T16:11:24.367Z,4.58
2024-03-06T16:14:00.254Z,4.60
2024-03-06T16:16:32.616Z,4.60
2024-03-06T16:19:04.902Z,4.60
2024-03-06T16:21:38.328Z,4.60
2024-03-06T16:24:11.791Z,4.60
2024-03-06T16:26:44.141Z,4.62
2024-03-06T16:29:16.499Z,4.70
2024-03-06T16:31:50.428Z,4.70
2024-03-06T16:34:25.469Z,4.70
2024-03-06T16:36:58.099Z,4.70
2024-03-06T16:39:30.844Z,4.72
2024-03-06T16:42:04.972Z,4.80
2024-03-06T16:44:38.700Z,4.80
2024-03-06T16:47:11.076Z,4.80
2024-03-06T16:49:43.176Z,4.80
2024-03-06T16:52:15.329Z,4.80
2024-03-06T16:54:48.141Z,4.84
2024-03-06T16:57:20.354Z,4.86
2024-03-06T16:59:52.690Z,4.90
2024-03-06T17:02:25.010Z,4.90
2024-03-06T17:04:58.386Z,4.90
2024-03-06T17:07:31.585Z,4.90
2024-03-06T17:10:06.127Z,4.90
2024-03-06T17:12:39.618Z,4.98
2024-03-06T17:15:13.970Z,4.98
2024-03-06T17:17:47.219Z,5.00
2024-03-06T17:20:21.157Z,5.00
2024-03-06T17:22:56.867Z,5.00
2024-03-06T17:25:30.239Z,5.00
2024-03-06T17:28:03.580Z,5.00
2024-03-06T17:30:37.067Z,5.00
2024-03-06T17:33:10.649Z,5.00
2024-03-06T17:35:44.220Z,5.00
2024-03-06T17:38:18.582Z,5.00
2024-03-06T17:40:51.973Z,5.00
2024-03-06T17:43:25.126Z,5.00
2024-03-06T17:45:58.456Z,5.00
2024-03-06T17:48:32.043Z,5.00
2024-03-06T17:51:05.812Z,5.00
2024-03-06T17:53:39.135Z,5.00
2024-03-06T17:56:13.613Z,5.00
2024-03-06T17:58:46.737Z,5.00
2024-03-06T18:01:21.494Z,5.00
2024-03-06T18:03:55.851Z,5.00
2024-03-06T18:06:29.007Z,5.00
2024-03-06T18:09:02.273Z,5.00
2024-03-06T18:11:35.577Z,4.96
2024-03-06T18:14:09.430Z,4.90
2024-03-06T18:16:44.358Z,4.90
2024-03-06T18:19:17.891Z,4.90
2024-03-06T18:21:51.036Z,4.90
2024-03-06T18:24:25.110Z,4.90
2024-03-06T18:26:59.644Z,4.90
2024-03-06T18:29:32.926Z,4.90
2024-03-06T18:32:09.364Z,4.90
2024-03-06T18:34:44.247Z,4.90
2024-03-06T18:37:17.627Z,4.90
2024-03-06T18:39:51.215Z,4.90
2024-03-06T18:42:24.494Z,4.82
2024-03-06T18:44:57.846Z,4.80
2024-03-06T18:47:31.118Z,4.80
2024-03-06T18:50:05.622Z,4.80
2024-03-06T18:52:39.664Z,4.80
2024-03-06T18:55:13.882Z,4.80
2024-03-06T18:57:47.189Z,4.80
2024-03-06T19:00:24.193Z,4.80
2024-03-06T19:02:57.531Z,4.78
2024-03-06T19:05:30.886Z,4.80
2024-03-06T19:08:04.128Z,4.76
2024-03-06T19:10:37.423Z,4.78
2024-03-06T19:13:10.846Z,4.70
2024-03-06T19:15:44.168Z,4.70
2024-03-06T19:18:17.435Z,4.70
2024-03-06T19:20:51.215Z,4.70
2024-03-06T19:23:24.486Z,4.70
2024-03-06T19:25:57.943Z,4.70
2024-03-06T19:28:31.141Z,4.70
2024-03-06T19:31:04.566Z,4.70
2024-03-06T19:33:37.883Z,4.66
2024-03-06T19:36:11.433Z,4.60
2024-03-06T19:38:44.743Z,4.60
2024-03-06T19:41:18.289Z,4.64
2024-03-06T19:43:51.898Z,4.62
2024-03-06T19:46:25.038Z,4.60
2024-03-06T19:48:58.504Z,4.60
2024-03-06T19:51:31.705Z,4.60
2024-03-06T19:54:08.365Z,4.60
2024-03-06T19:56:41.682Z,4.60
2024-03-06T19:59:15.181Z,4.52
2024-03-06T20:01:48.510Z,4.50
2024-03-06T20:04:21.949Z,4.50
2024-03-06T20:06:55.229Z,4.50
2024-03-06T20:09:29.387Z,4.50
2024-03-06T20:12:03.244Z,4.50
2024-03-06T20:14:37.089Z,4.50
2024-03-06T20:17:10.967Z,4.50
2024-03-06T20:19:46.921Z,4.50
2024-03-06T20:22:20.141Z,4.50
2024-03-06T20:24:53.499Z,4.50
2024-03-06T20:27:27.665Z,4.50
2024-03-06T20:30:00.814Z,4.50
2024-03-06T20:32:34.160Z,4.50
2024-03-06T20:35:08.965Z,4.50
2024-03-06T20:37:42.715Z,4.50
2024-03-06T20:40:17.413Z,4.56
2024-03-06T20:42:50.693Z,4.60
2024-03-06T20:45:23.910Z,4.60
2024-03-06T20:48:02.049Z,4.60
2024-03-06T20:50:36.291Z,4.60
2024-03-06T20:53:09.876Z,4.58
2024-03-06T20:55:46.952Z,4.54
2024-03-06T20:58:20.434Z,4.50
2024-03-06T21:00:53.694Z,4.50
2024-03-06T21:03:27.129Z,4.46
2024-03-06T21:06:00.578Z,4.40
2024-03-06T21:08:34.116Z,4.40
2024-03-06T21:11:08.823Z,4.40
2024-03-06T21:13:42.280Z,4.40
2024-03-06T21:16:15.437Z,4.42
2024-03-06T21:18:48.616Z,4.40
2024-03-06T21:21:21.777Z,4.40
2024-03-06T21:23:54.956Z,4.42
2024-03-06T21:26:28.346Z,4.40
2024-03-06T21:29:02.190Z,4.40
2024-03-06T21:31:36.208Z,4.40
2024-03-06T21:34:09.350Z,4.40
2024-03-06T21:36:42.727Z,4.40
2024-03-06T21:39:16.240Z,4.40
2024-03-06T21:41:49.468Z,4.40
2024-03-06T21:44:23.668Z,4.40
2024-03-06T21:46:57.968Z,4.40
2024-03-06T21:49:35.411Z,4.40
2024-03-06T21:52:13.163Z,4.40
2024-03-06T21:54:46.431Z,4.40
2024-03-06T21:57:19.608Z,4.40
2024-03-06T21:59:52.870Z,4.40
2024-03-06T22:02:26.724Z,4.40
2024-03-06T22:05:00.034Z,4.30
2024-03-06T22:07:33.215Z,4.30
2024-03-06T22:10:08.938Z,4.32
2024-03-06T22:12:42.519Z,4.40
2024-03-06T22:15:15.912Z,4.40
2024-03-06T22:17:49.877Z,4.40
2024-03-06T22:20:24.027Z,4.32
2024-03-06T22:22:57.369Z,4.30
2024-03-06T22:25:31.171Z,4.30
2024-03-06T22:28:04.572Z,4.26
2024-03-06T22:30:39.157Z,4.20
2024-03-06T22:33:12.540Z,4.20
2024-03-06T22:35:46.395Z,4.20
2024-03-06T22:38:19.628Z,4.20
2024-03-06T22:40:52.984Z,4.20
2024-03-06T22:43:26.210Z,4.20
2024-03-06T22:45:59.671Z,4.20
2024-03-06T22:48:33.039Z,4.20
2024-03-06T22:51:07.193Z,4.20
2024-03-06T22:53:40.937Z,4.20
2024-03-06T22:56:15.076Z,4.20
2024-03-06T22:58:48.701Z,4.20
2024-03-06T23:01:21.924Z,4.20
2024-03-06T23:03:55.391Z,4.20
2024-03-06T23:06:28.684Z,4.20
2024-03-06T23:09:02.063Z,4.12
2024-03-06T23:11:35.400Z,4.10
2024-03-06T23:14:08.830Z,4.16
2024-03-06T23:16:42.584Z,4.20
2024-03-06T23:19:16.199Z,4.20
2024-03-06T23:21:49.371Z,4.20
2024-03-06T23:24:22.564Z,4.20
2024-03-06T23:26:56.159Z,4.20
2024-03-06T23:29:29.376Z,4.20
2024-03-06T23:32:02.565Z,4.20
2024-03-06T23:34:35.784Z,4.20
2024-03-06T23:37:09.227Z,4.20
2024-03-06T23:39:42.479Z,4.20
2024-03-06T23:42:15.784Z,4.20
2024-03-06T23:44:49.321Z,4.20
2024-03-06T23:47:22.575Z,4.20
2024-03-06T23:49:55.809Z,4.20
2024-03-06T23:52:29.834Z,4.20
2024-03-06T23:55:03.550Z,4.20
2024-03-06T23:57:37.678Z,4.20
